Scf Baltica — A8IA5 — position and weather

sailwx.info

Track history (hours):
 
Tides and Currents Weather Stations Pressure Air Temp Water Temp Dewpoint Dewpoint Depression Visibility Wind Speed Wind Dir Waves Ship Positions

Scf Baltica

Last reported at 2014-Dec-23 00:33 UTC. Time now 2014-Dec-23 01:33 UTC.
Position N 54°32' E 012°15'.

Length 250 m; draft 8.8 m.

Type: Ship. MMSI: 636012813.

Date/timePositionNaut miles runAvg speedWind from/ knotsBaromVisibWave heightAir tempDewpointWater temp
2014-Dec-23 00:33N 54°32' E 012°15'10 9.8
2014-Dec-22 23:33N 54°25' E 012°03'1110.6
2014-Dec-22 22:34N 54°25' E 011°45'1211.9
2014-Dec-22 21:34N 54°30' E 011°27'1211.7
2014-Dec-22 20:33N 54°36' E 011°09'12110.0
2014-Dec-22 08:21N 56°36' E 011°42'8 9.7
2014-Dec-22 07:33N 56°42' E 011°49'1010.0
2014-Dec-22 06:33N 56°52' E 011°48'1111.3
2014-Dec-22 05:33N 57°03' E 011°41'1110.9
2014-Dec-22 04:33N 57°13' E 011°34'1110.5
2014-Dec-22 03:33N 57°23' E 011°27'1110.6
2014-Dec-22 02:33N 57°33' E 011°20'1110.9
2014-Dec-22 01:33N 57°43' E 011°13'1010.0
2014-Dec-22 00:33N 57°53' E 011°09'9 8.5
2014-Dec-21 23:33N 58°01' E 011°09'8 8.0
2014-Dec-21 22:33N 58°09' E 011°09'7 7.4
2014-Dec-21 21:33N 58°16' E 011°15'7 6.8
2014-Dec-21 20:31N 58°21' E 011°24'0 0.0
2014-Dec-21 19:31N 58°21' E 011°24'0 0.0
2014-Dec-21 18:28N 58°21' E 011°24'0 0.0
2014-Dec-21 17:31N 58°21' E 011°24'0 0.0
2014-Dec-21 16:31N 58°21' E 011°24'0 0.0
2014-Dec-21 15:31N 58°21' E 011°24'0 0.0
2014-Dec-21 14:31N 58°21' E 011°24'0 0.0
2014-Dec-21 13:19N 58°21' E 011°24'0 0.0
2014-Dec-21 12:28N 58°21' E 011°24'0 0.0
2014-Dec-21 11:28N 58°21' E 011°24'0 0.0
2014-Dec-21 10:28N 58°21' E 011°24'0 0.0
2014-Dec-21 09:31N 58°21' E 011°24'0 0.0
2014-Dec-21 08:31N 58°21' E 011°24'0 0.0
2014-Dec-21 07:31N 58°21' E 011°24'0 0.0
2014-Dec-21 06:31N 58°21' E 011°24'0 0.0
2014-Dec-21 05:31N 58°21' E 011°24'0 0.0
2014-Dec-21 04:31N 58°21' E 011°24'0 0.0
2014-Dec-21 03:31N 58°21' E 011°24'0 0.0
2014-Dec-21 02:31N 58°21' E 011°24'0 0.0
2014-Dec-21 01:19N 58°21' E 011°24'0 0.0
2014-Dec-21 00:31N 58°21' E 011°24'0 0.0
2014-Dec-20 23:31N 58°21' E 011°24'0 0.0
2014-Dec-20 22:31N 58°21' E 011°24'0 0.0
2014-Dec-20 21:31N 58°21' E 011°24'0 0.0
2014-Dec-20 20:31N 58°21' E 011°24'0 0.0
2014-Dec-20 19:31N 58°21' E 011°24'0 0.0
2014-Dec-20 18:31N 58°21' E 011°24'1 0.9
2014-Dec-20 17:33N 58°20' E 011°23'7 7.1
2014-Dec-20 16:33N 58°15' E 011°14'9 9.4
2014-Dec-20 15:33N 58°06' E 011°09'1211.8
2014-Dec-20 14:33N 57°55' E 011°15'1211.5
2014-Dec-20 13:33N 57°44' E 011°20'1211.6
2014-Dec-20 12:34N 57°32' E 011°25'1211.9
2014-Dec-20 11:33N 57°21' E 011°32'1211.4
2014-Dec-20 10:33N 57°10' E 011°38'1111.3
2014-Dec-20 09:33N 56°59' E 011°45'1111.1
2014-Dec-20 08:33N 56°49' E 011°52'12410.1
2014-Dec-19 20:15N 54°50' E 010°50'810.7
2014-Dec-19 19:32N 54°42' E 010°47'9 9.6
2014-Dec-19 18:33N 54°37' E 010°59'10 9.7
2014-Dec-19 17:34N 54°34' E 011°15'1010.2
2014-Dec-19 16:33N 54°30' E 011°31'1110.5
2014-Dec-19 15:33N 54°27' E 011°48'1110.3
2014-Dec-19 14:28N 54°27' E 012°08'49 9.3
2014-Dec-19 09:13N 54°55' E 013°17'1011.2
2014-Dec-19 08:22N 54°57' E 013°33'911.2
2014-Dec-19 07:33N 55°01' E 013°48'1111.2
2014-Dec-19 06:33N 55°06' E 014°05'1211.5
2014-Dec-19 05:33N 55°14' E 014°19'1211.7
2014-Dec-19 04:33N 55°23' E 014°31'1110.9
2014-Dec-19 03:33N 55°30' E 014°47'1110.8
2014-Dec-19 02:33N 55°35' E 015°04'36110.9
2014-Dec-17 17:32N 59°38' E 023°22'1211.9
2014-Dec-17 16:32N 59°41' E 023°45'2412.1
2014-Dec-17 14:32N 59°47' E 024°31'6111.7
2014-Dec-17 09:21N 60°01' E 026°30'911.7
2014-Dec-17 08:33N 60°01' E 026°48'14 0.3
2014-Dec-15 15:17N 60°02' E 027°16'911.1
2014-Dec-15 14:31N 59°58' E 026°60'1011.0
2014-Dec-15 13:34N 59°60' E 026°39'1110.7
2014-Dec-15 12:31N 59°57' E 026°18'4410.5
2014-Dec-15 08:18N 59°46' E 024°52'810.6
2014-Dec-15 07:33N 59°45' E 024°37'1110.4
2014-Dec-15 06:32N 59°42' E 024°16'1110.6
2014-Dec-15 05:29N 59°38' E 023°55'1010.6
2014-Dec-15 04:33N 59°35' E 023°37'1010.2
2014-Dec-15 03:33N 59°32' E 023°18'34511.5
2014-Dec-13 21:32N 55°36' E 015°28'1313.4
2014-Dec-13 20:33N 55°31' E 015°07'1313.3
2014-Dec-13 19:34N 55°25' E 014°46'1313.3
2014-Dec-13 18:33N 55°16' E 014°29'1413.6
2014-Dec-13 17:33N 55°05' E 014°14'1313.0
2014-Dec-13 16:33N 54°59' E 013°55'6513.1
2014-Dec-13 11:33N 54°29' E 012°14'1211.9
2014-Dec-13 10:33N 54°25' E 011°54'  
Track history (hours):
 
Tides and Currents Weather Stations Pressure Air Temp Water Temp Dewpoint Dewpoint Depression Visibility Wind Speed Wind Dir Waves Ship Positions

Scf Baltica

Last reported at 2014-Dec-23 00:33 UTC. Time now 2014-Dec-23 01:33 UTC.
Position N 54°32' E 012°15'.

Length 250 m; draft 8.8 m.

Type: Ship. MMSI: 636012813.

Date/timePositionNaut miles runAvg speedWind from/ knotsBaromVisibWave heightAir tempDewpointWater temp
2014-Dec-23 00:33N 54°32' E 012°15'10 9.8
2014-Dec-22 23:33N 54°25' E 012°03'1110.6
2014-Dec-22 22:34N 54°25' E 011°45'1211.9
2014-Dec-22 21:34N 54°30' E 011°27'1211.7
2014-Dec-22 20:33N 54°36' E 011°09'12110.0
2014-Dec-22 08:21N 56°36' E 011°42'8 9.7
2014-Dec-22 07:33N 56°42' E 011°49'1010.0
2014-Dec-22 06:33N 56°52' E 011°48'1111.3
2014-Dec-22 05:33N 57°03' E 011°41'1110.9
2014-Dec-22 04:33N 57°13' E 011°34'1110.5
2014-Dec-22 03:33N 57°23' E 011°27'1110.6
2014-Dec-22 02:33N 57°33' E 011°20'1110.9
2014-Dec-22 01:33N 57°43' E 011°13'1010.0
2014-Dec-22 00:33N 57°53' E 011°09'9 8.5
2014-Dec-21 23:33N 58°01' E 011°09'8 8.0
2014-Dec-21 22:33N 58°09' E 011°09'7 7.4
2014-Dec-21 21:33N 58°16' E 011°15'7 6.8
2014-Dec-21 20:31N 58°21' E 011°24'0 0.0
2014-Dec-21 19:31N 58°21' E 011°24'0 0.0
2014-Dec-21 18:28N 58°21' E 011°24'0 0.0
2014-Dec-21 17:31N 58°21' E 011°24'0 0.0
2014-Dec-21 16:31N 58°21' E 011°24'0 0.0
2014-Dec-21 15:31N 58°21' E 011°24'0 0.0
2014-Dec-21 14:31N 58°21' E 011°24'0 0.0
2014-Dec-21 13:19N 58°21' E 011°24'0 0.0
2014-Dec-21 12:28N 58°21' E 011°24'0 0.0
2014-Dec-21 11:28N 58°21' E 011°24'0 0.0
2014-Dec-21 10:28N 58°21' E 011°24'0 0.0
2014-Dec-21 09:31N 58°21' E 011°24'0 0.0
2014-Dec-21 08:31N 58°21' E 011°24'0 0.0
2014-Dec-21 07:31N 58°21' E 011°24'0 0.0
2014-Dec-21 06:31N 58°21' E 011°24'0 0.0
2014-Dec-21 05:31N 58°21' E 011°24'0 0.0
2014-Dec-21 04:31N 58°21' E 011°24'0 0.0
2014-Dec-21 03:31N 58°21' E 011°24'0 0.0
2014-Dec-21 02:31N 58°21' E 011°24'0 0.0
2014-Dec-21 01:19N 58°21' E 011°24'0 0.0
2014-Dec-21 00:31N 58°21' E 011°24'0 0.0
2014-Dec-20 23:31N 58°21' E 011°24'0 0.0
2014-Dec-20 22:31N 58°21' E 011°24'0 0.0
2014-Dec-20 21:31N 58°21' E 011°24'0 0.0
2014-Dec-20 20:31N 58°21' E 011°24'0 0.0
2014-Dec-20 19:31N 58°21' E 011°24'0 0.0
2014-Dec-20 18:31N 58°21' E 011°24'1 0.9
2014-Dec-20 17:33N 58°20' E 011°23'7 7.1
2014-Dec-20 16:33N 58°15' E 011°14'9 9.4
2014-Dec-20 15:33N 58°06' E 011°09'1211.8
2014-Dec-20 14:33N 57°55' E 011°15'1211.5
2014-Dec-20 13:33N 57°44' E 011°20'1211.6
2014-Dec-20 12:34N 57°32' E 011°25'1211.9
2014-Dec-20 11:33N 57°21' E 011°32'1211.4
2014-Dec-20 10:33N 57°10' E 011°38'1111.3
2014-Dec-20 09:33N 56°59' E 011°45'1111.1
2014-Dec-20 08:33N 56°49' E 011°52'12410.1
2014-Dec-19 20:15N 54°50' E 010°50'810.7
2014-Dec-19 19:32N 54°42' E 010°47'9 9.6
2014-Dec-19 18:33N 54°37' E 010°59'10 9.7
2014-Dec-19 17:34N 54°34' E 011°15'1010.2
2014-Dec-19 16:33N 54°30' E 011°31'1110.5
2014-Dec-19 15:33N 54°27' E 011°48'1110.3
2014-Dec-19 14:28N 54°27' E 012°08'49 9.3
2014-Dec-19 09:13N 54°55' E 013°17'1011.2
2014-Dec-19 08:22N 54°57' E 013°33'911.2
2014-Dec-19 07:33N 55°01' E 013°48'1111.2
2014-Dec-19 06:33N 55°06' E 014°05'1211.5
2014-Dec-19 05:33N 55°14' E 014°19'1211.7
2014-Dec-19 04:33N 55°23' E 014°31'1110.9
2014-Dec-19 03:33N 55°30' E 014°47'1110.8
2014-Dec-19 02:33N 55°35' E 015°04'36110.9
2014-Dec-17 17:32N 59°38' E 023°22'1211.9
2014-Dec-17 16:32N 59°41' E 023°45'2412.1
2014-Dec-17 14:32N 59°47' E 024°31'6111.7
2014-Dec-17 09:21N 60°01' E 026°30'911.7
2014-Dec-17 08:33N 60°01' E 026°48'14 0.3
2014-Dec-15 15:17N 60°02' E 027°16'911.1
2014-Dec-15 14:31N 59°58' E 026°60'1011.0
2014-Dec-15 13:34N 59°60' E 026°39'1110.7
2014-Dec-15 12:31N 59°57' E 026°18'4410.5
2014-Dec-15 08:18N 59°46' E 024°52'810.6
2014-Dec-15 07:33N 59°45' E 024°37'1110.4
2014-Dec-15 06:32N 59°42' E 024°16'1110.6
2014-Dec-15 05:29N 59°38' E 023°55'1010.6
2014-Dec-15 04:33N 59°35' E 023°37'1010.2
2014-Dec-15 03:33N 59°32' E 023°18'34511.5
2014-Dec-13 21:32N 55°36' E 015°28'1313.4
2014-Dec-13 20:33N 55°31' E 015°07'1313.3
2014-Dec-13 19:34N 55°25' E 014°46'1313.3
2014-Dec-13 18:33N 55°16' E 014°29'1413.6
2014-Dec-13 17:33N 55°05' E 014°14'1313.0
2014-Dec-13 16:33N 54°59' E 013°55'6513.1
2014-Dec-13 11:33N 54°29' E 012°14'1211.9
2014-Dec-13 10:33N 54°25' E 011°54'  

Dump ship's entire track history